sensor_id;sensor_type;location;lat;lon;timestamp;P1;durP1;ratioP1;P2;durP2;ratioP2
57307;SDS011;43152;50.968;18.214;2023-04-03T00:06:45;3.10;;;0.70;;
57307;SDS011;43152;50.968;18.214;2023-04-03T00:16:27;9.60;;;1.10;;
57307;SDS011;43152;50.968;18.214;2023-04-03T00:33:26;23.00;;;1.00;;
57307;SDS011;43152;50.968;18.214;2023-04-03T00:43:17;13.90;;;1.00;;
57307;SDS011;43152;50.968;18.214;2023-04-03T00:53:15;6.00;;;0.90;;
57307;SDS011;43152;50.968;18.214;2023-04-03T01:03:02;7.00;;;1.50;;
57307;SDS011;43152;50.968;18.214;2023-04-03T01:12:46;3.00;;;0.60;;
57307;SDS011;43152;50.968;18.214;2023-04-03T01:42:51;12.60;;;2.30;;
57307;SDS011;43152;50.968;18.214;2023-04-03T01:52:33;8.20;;;1.90;;
57307;SDS011;43152;50.968;18.214;2023-04-03T02:02:16;13.10;;;1.30;;
57307;SDS011;43152;50.968;18.214;2023-04-03T02:11:59;8.80;;;2.60;;
57307;SDS011;43152;50.968;18.214;2023-04-03T02:21:43;11.80;;;3.80;;
57307;SDS011;43152;50.968;18.214;2023-04-03T02:31:26;6.90;;;1.50;;
57307;SDS011;43152;50.968;18.214;2023-04-03T02:41:09;4.10;;;1.60;;
57307;SDS011;43152;50.968;18.214;2023-04-03T02:50:53;7.00;;;2.70;;
57307;SDS011;43152;50.968;18.214;2023-04-03T03:00:36;21.70;;;2.90;;
57307;SDS011;43152;50.968;18.214;2023-04-03T03:10:18;5.60;;;1.30;;
57307;SDS011;43152;50.968;18.214;2023-04-03T03:20:01;14.80;;;4.00;;
57307;SDS011;43152;50.968;18.214;2023-04-03T03:29:47;18.20;;;4.90;;
57307;SDS011;43152;50.968;18.214;2023-04-03T03:39:29;10.40;;;2.60;;
57307;SDS011;43152;50.968;18.214;2023-04-03T03:49:12;24.00;;;4.80;;
57307;SDS011;43152;50.968;18.214;2023-04-03T03:58:55;29.50;;;4.40;;
57307;SDS011;43152;50.968;18.214;2023-04-03T04:08:38;10.60;;;3.40;;
57307;SDS011;43152;50.968;18.214;2023-04-03T04:18:21;12.40;;;2.90;;
57307;SDS011;43152;50.968;18.214;2023-04-03T04:28:05;17.80;;;4.60;;
57307;SDS011;43152;50.968;18.214;2023-04-03T04:37:48;6.70;;;2.20;;
57307;SDS011;43152;50.968;18.214;2023-04-03T04:47:31;12.30;;;2.50;;
57307;SDS011;43152;50.968;18.214;2023-04-03T04:57:13;7.00;;;3.10;;
57307;SDS011;43152;50.968;18.214;2023-04-03T05:06:55;11.00;;;3.40;;
57307;SDS011;43152;50.968;18.214;2023-04-03T05:16:37;17.70;;;4.40;;
57307;SDS011;43152;50.968;18.214;2023-04-03T05:26:30;13.70;;;1.90;;
57307;SDS011;43152;50.968;18.214;2023-04-03T05:36:13;10.50;;;3.80;;
57307;SDS011;43152;50.968;18.214;2023-04-03T05:45:56;11.00;;;3.30;;
57307;SDS011;43152;50.968;18.214;2023-04-03T05:55:51;17.70;;;1.70;;
57307;SDS011;43152;50.968;18.214;2023-04-03T06:05:33;12.70;;;5.30;;
57307;SDS011;43152;50.968;18.214;2023-04-03T06:15:16;13.60;;;4.40;;
57307;SDS011;43152;50.968;18.214;2023-04-03T06:25:00;15.40;;;4.20;;
57307;SDS011;43152;50.968;18.214;2023-04-03T06:34:43;9.30;;;2.10;;
57307;SDS011;43152;50.968;18.214;2023-04-03T06:44:35;10.10;;;0.60;;
57307;SDS011;43152;50.968;18.214;2023-04-03T06:54:17;14.10;;;2.70;;
57307;SDS011;43152;50.968;18.214;2023-04-03T07:04:00;11.80;;;1.40;;
57307;SDS011;43152;50.968;18.214;2023-04-03T07:13:43;3.80;;;1.20;;
57307;SDS011;43152;50.968;18.214;2023-04-03T07:23:26;6.50;;;1.70;;
57307;SDS011;43152;50.968;18.214;2023-04-03T07:33:10;5.40;;;1.30;;
57307;SDS011;43152;50.968;18.214;2023-04-03T07:50:13;6.30;;;1.30;;
57307;SDS011;43152;50.968;18.214;2023-04-03T07:59:57;1.10;;;0.30;;
57307;SDS011;43152;50.968;18.214;2023-04-03T08:09:39;5.90;;;1.50;;
57307;SDS011;43152;50.968;18.214;2023-04-03T08:19:26;6.80;;;1.60;;
57307;SDS011;43152;50.968;18.214;2023-04-03T08:29:09;1.50;;;0.30;;
57307;SDS011;43152;50.968;18.214;2023-04-03T08:38:53;7.10;;;0.70;;
57307;SDS011;43152;50.968;18.214;2023-04-03T08:49:14;8.20;;;0.70;;
57307;SDS011;43152;50.968;18.214;2023-04-03T09:09:54;1.80;;;0.50;;
57307;SDS011;43152;50.968;18.214;2023-04-03T09:31:18;3.20;;;0.90;;
57307;SDS011;43152;50.968;18.214;2023-04-03T09:41:06;4.80;;;0.90;;
57307;SDS011;43152;50.968;18.214;2023-04-03T09:51:35;13.30;;;1.10;;
57307;SDS011;43152;50.968;18.214;2023-04-03T10:01:43;3.90;;;0.50;;
57307;SDS011;43152;50.968;18.214;2023-04-03T10:43:23;10.40;;;3.20;;
57307;SDS011;43152;50.968;18.214;2023-04-03T11:03:43;3.70;;;0.60;;
57307;SDS011;43152;50.968;18.214;2023-04-03T11:23:56;7.70;;;1.60;;
57307;SDS011;43152;50.968;18.214;2023-04-03T11:34:14;3.80;;;0.80;;
57307;SDS011;43152;50.968;18.214;2023-04-03T11:44:47;6.00;;;1.70;;
57307;SDS011;43152;50.968;18.214;2023-04-03T12:47:32;0.10;;;0.10;;
57307;SDS011;43152;50.968;18.214;2023-04-03T12:57:24;13.20;;;0.90;;
57307;SDS011;43152;50.968;18.214;2023-04-03T13:17:41;5.60;;;1.40;;
57307;SDS011;43152;50.968;18.214;2023-04-03T13:27:56;4.00;;;0.70;;
57307;SDS011;43152;50.968;18.214;2023-04-03T13:37:55;2.90;;;0.70;;
57307;SDS011;43152;50.968;18.214;2023-04-03T13:47:53;9.30;;;1.30;;
57307;SDS011;43152;50.968;18.214;2023-04-03T13:58:00;6.50;;;1.70;;
57307;SDS011;43152;50.968;18.214;2023-04-03T14:08:04;9.10;;;1.30;;
57307;SDS011;43152;50.968;18.214;2023-04-03T14:17:53;7.90;;;1.50;;
57307;SDS011;43152;50.968;18.214;2023-04-03T14:27:42;7.20;;;1.20;;
57307;SDS011;43152;50.968;18.214;2023-04-03T14:37:30;5.60;;;1.00;;
57307;SDS011;43152;50.968;18.214;2023-04-03T14:47:17;2.60;;;0.60;;
57307;SDS011;43152;50.968;18.214;2023-04-03T14:57:09;8.10;;;0.90;;
57307;SDS011;43152;50.968;18.214;2023-04-03T15:07:15;13.40;;;1.30;;
57307;SDS011;43152;50.968;18.214;2023-04-03T15:16:58;4.30;;;1.00;;
57307;SDS011;43152;50.968;18.214;2023-04-03T15:26:41;2.90;;;0.60;;
57307;SDS011;43152;50.968;18.214;2023-04-03T15:36:24;10.90;;;2.70;;
57307;SDS011;43152;50.968;18.214;2023-04-03T15:46:06;19.30;;;3.20;;
57307;SDS011;43152;50.968;18.214;2023-04-03T15:55:49;5.30;;;1.50;;
57307;SDS011;43152;50.968;18.214;2023-04-03T16:05:35;7.50;;;0.90;;
57307;SDS011;43152;50.968;18.214;2023-04-03T16:15:19;10.50;;;2.60;;
57307;SDS011;43152;50.968;18.214;2023-04-03T16:25:02;7.40;;;1.50;;
57307;SDS011;43152;50.968;18.214;2023-04-03T16:34:52;13.50;;;3.20;;
57307;SDS011;43152;50.968;18.214;2023-04-03T16:44:35;11.20;;;2.60;;
57307;SDS011;43152;50.968;18.214;2023-04-03T16:54:22;9.50;;;2.90;;
57307;SDS011;43152;50.968;18.214;2023-04-03T17:04:05;11.60;;;3.60;;
57307;SDS011;43152;50.968;18.214;2023-04-03T17:13:47;3.60;;;0.90;;
57307;SDS011;43152;50.968;18.214;2023-04-03T17:23:31;3.60;;;0.70;;
57307;SDS011;43152;50.968;18.214;2023-04-03T17:33:22;5.80;;;1.10;;
57307;SDS011;43152;50.968;18.214;2023-04-03T17:43:04;13.40;;;1.20;;
57307;SDS011;43152;50.968;18.214;2023-04-03T17:52:47;8.90;;;2.30;;
57307;SDS011;43152;50.968;18.214;2023-04-03T18:02:31;17.30;;;4.30;;
57307;SDS011;43152;50.968;18.214;2023-04-03T18:12:14;13.80;;;4.30;;
57307;SDS011;43152;50.968;18.214;2023-04-03T18:22:02;6.60;;;1.60;;
57307;SDS011;43152;50.968;18.214;2023-04-03T18:31:55;10.30;;;3.40;;
57307;SDS011;43152;50.968;18.214;2023-04-03T18:41:38;18.70;;;4.40;;
57307;SDS011;43152;50.968;18.214;2023-04-03T18:51:22;24.10;;;7.60;;
57307;SDS011;43152;50.968;18.214;2023-04-03T19:08:23;14.60;;;4.30;;
57307;SDS011;43152;50.968;18.214;2023-04-03T19:18:06;17.50;;;6.60;;
57307;SDS011;43152;50.968;18.214;2023-04-03T19:27:49;27.00;;;8.20;;
57307;SDS011;43152;50.968;18.214;2023-04-03T19:37:32;31.50;;;8.00;;
57307;SDS011;43152;50.968;18.214;2023-04-03T19:47:14;20.40;;;5.10;;
57307;SDS011;43152;50.968;18.214;2023-04-03T19:56:58;9.40;;;2.30;;
57307;SDS011;43152;50.968;18.214;2023-04-03T20:06:41;7.80;;;2.80;;
57307;SDS011;43152;50.968;18.214;2023-04-03T20:16:26;9.20;;;2.70;;
57307;SDS011;43152;50.968;18.214;2023-04-03T20:26:21;11.30;;;4.30;;
57307;SDS011;43152;50.968;18.214;2023-04-03T20:36:07;12.80;;;3.60;;
57307;SDS011;43152;50.968;18.214;2023-04-03T20:53:12;9.20;;;3.00;;
57307;SDS011;43152;50.968;18.214;2023-04-03T21:02:56;11.00;;;4.00;;
57307;SDS011;43152;50.968;18.214;2023-04-03T21:24:01;12.90;;;2.00;;
57307;SDS011;43152;50.968;18.214;2023-04-03T21:33:48;4.80;;;1.40;;
57307;SDS011;43152;50.968;18.214;2023-04-03T21:43:31;7.50;;;2.90;;
57307;SDS011;43152;50.968;18.214;2023-04-03T21:53:21;11.70;;;1.10;;
57307;SDS011;43152;50.968;18.214;2023-04-03T22:21:53;12.40;;;3.30;;
57307;SDS011;43152;50.968;18.214;2023-04-03T22:31:37;13.70;;;4.10;;
57307;SDS011;43152;50.968;18.214;2023-04-03T22:41:22;9.80;;;3.40;;
57307;SDS011;43152;50.968;18.214;2023-04-03T22:51:07;11.50;;;3.70;;
57307;SDS011;43152;50.968;18.214;2023-04-03T23:00:55;9.30;;;3.30;;
57307;SDS011;43152;50.968;18.214;2023-04-03T23:10:48;20.50;;;5.70;;
57307;SDS011;43152;50.968;18.214;2023-04-03T23:20:30;16.70;;;3.10;;
57307;SDS011;43152;50.968;18.214;2023-04-03T23:30:16;22.60;;;7.00;;
57307;SDS011;43152;50.968;18.214;2023-04-03T23:39:59;13.20;;;5.20;;
57307;SDS011;43152;50.968;18.214;2023-04-03T23:49:44;12.40;;;4.00;;
57307;SDS011;43152;50.968;18.214;2023-04-03T23:59:26;19.40;;;5.10;;
